Time;durP1;ratioP1;P1;durP2;ratioP2;P2;SDS_P1;SDS_P2;PMS_P1;PMS_P2;Temp;Humidity;BMP_temperature;BMP_pressure;BME280_temperature;BME280_humidity;BME280_pressure;Samples;Min_cycle;Max_cycle;Signal;HPM_P1;HPM_P2
2023/08/08 00:01:46;;;;;;;2.92;2.20;;;12.70;99.90;;;;;;5035318;28;20046;-68
2023/08/08 00:04:11;;;;;;;7.53;2.45;;;12.80;99.90;;;;;;5038870;28;20037;-69
2023/08/08 00:06:37;;;;;;;3.03;2.35;;;12.80;99.90;;;;;;5061874;28;20116;-68
2023/08/08 00:09:04;;;;;;;2.95;1.90;;;12.80;99.90;;;;;;5046318;28;20040;-68
2023/08/08 00:11:30;;;;;;;4.45;2.15;;;12.80;99.90;;;;;;5034885;28;20045;-67
2023/08/08 00:13:56;;;;;;;6.18;2.70;;;12.80;99.90;;;;;;5039511;28;20048;-68
2023/08/08 00:16:22;;;;;;;6.00;2.55;;;12.80;99.90;;;;;;5027427;28;20630;-69
2023/08/08 00:18:50;;;;;;;6.28;3.13;;;13.00;99.90;;;;;;5026352;28;20058;-68
2023/08/08 00:21:16;;;;;;;4.95;2.55;;;13.00;99.90;;;;;;5042186;28;20586;-69
2023/08/08 00:23:42;;;;;;;4.60;2.60;;;13.00;99.90;;;;;;5046287;28;20377;-68
2023/08/08 00:26:08;;;;;;;8.55;2.92;;;13.00;99.90;;;;;;5045335;28;20041;-68
2023/08/08 00:28:34;;;;;;;4.63;2.83;;;13.10;99.90;;;;;;5032278;28;20041;-68
2023/08/08 00:30:59;;;;;;;7.35;2.53;;;13.00;99.90;;;;;;5026725;28;20060;-69
2023/08/08 00:33:25;;;;;;;5.45;2.78;;;13.10;99.90;;;;;;5037839;28;20797;-69
2023/08/08 00:35:50;;;;;;;7.80;2.90;;;13.10;99.90;;;;;;5033716;28;20639;-68
2023/08/08 00:38:18;;;;;;;4.55;2.42;;;13.10;99.90;;;;;;5055888;28;20329;-66
2023/08/08 00:40:43;;;;;;;7.25;2.90;;;13.10;99.90;;;;;;5028377;28;20071;-69
2023/08/08 00:43:09;;;;;;;4.57;2.70;;;13.10;99.90;;;;;;5029417;28;20029;-69
2023/08/08 00:45:34;;;;;;;4.43;2.95;;;13.10;99.90;;;;;;5030079;28;20072;-68
2023/08/08 00:48:01;;;;;;;6.93;3.00;;;13.20;99.90;;;;;;5038395;28;20040;-67
2023/08/08 00:50:27;;;;;;;5.88;2.63;;;13.20;99.90;;;;;;5021007;28;20105;-68
2023/08/08 00:52:52;;;;;;;6.20;2.90;;;13.20;99.90;;;;;;5040341;28;20053;-68
2023/08/08 00:55:19;;;;;;;6.88;2.80;;;13.30;99.90;;;;;;5043292;28;20063;-68
2023/08/08 00:57:45;;;;;;;7.88;3.13;;;13.30;99.90;;;;;;5043291;28;20041;-68
2023/08/08 01:00:11;;;;;;;9.65;2.90;;;13.30;99.90;;;;;;5039286;28;20064;-68
2023/08/08 01:02:37;;;;;;;6.80;2.78;;;13.40;99.90;;;;;;5050226;28;20045;-68
2023/08/08 01:05:04;;;;;;;6.05;3.22;;;13.40;99.90;;;;;;5043477;28;20114;-68
2023/08/08 01:07:32;;;;;;;6.53;2.78;;;13.40;99.90;;;;;;5059074;28;20467;-68
2023/08/08 01:10:07;;;;;;;5.07;2.47;;;13.40;99.90;;;;;;5015234;28;20045;-68
2023/08/08 01:12:40;;;;;;;5.57;2.60;;;13.40;99.90;;;;;;5058846;28;20102;-68
2023/08/08 01:15:07;;;;;;;6.53;2.97;;;13.40;99.90;;;;;;5035516;28;20116;-68
2023/08/08 01:17:34;;;;;;;6.63;2.92;;;13.40;99.90;;;;;;5033044;28;20051;-69
2023/08/08 01:20:00;;;;;;;5.47;2.58;;;13.40;99.90;;;;;;5031811;28;20048;-68
2023/08/08 01:22:32;;;;;;;4.78;2.90;;;13.40;99.90;;;;;;5040803;28;20037;-68
2023/08/08 01:24:59;;;;;;;5.28;3.20;;;13.40;99.90;;;;;;5042143;28;20099;-67
2023/08/08 01:27:24;;;;;;;5.32;2.67;;;13.40;99.90;;;;;;5033622;28;20041;-68
2023/08/08 01:29:50;;;;;;;6.68;3.00;;;13.40;99.90;;;;;;5038327;28;20040;-68
2023/08/08 01:32:16;;;;;;;6.90;2.55;;;13.40;99.90;;;;;;5031463;28;20476;-68
2023/08/08 01:34:42;;;;;;;8.05;2.40;;;13.40;99.90;;;;;;5030881;28;20037;-68
2023/08/08 01:37:14;;;;;;;4.55;3.13;;;13.40;99.90;;;;;;5029532;28;20087;-68
2023/08/08 01:39:42;;;;;;;5.68;2.75;;;13.40;99.90;;;;;;5039463;28;20404;-68
2023/08/08 01:42:08;;;;;;;4.35;2.60;;;13.30;99.90;;;;;;5028218;28;20072;-68
2023/08/08 01:44:34;;;;;;;8.32;3.95;;;13.30;99.90;;;;;;5034074;28;20037;-68
2023/08/08 01:47:00;;;;;;;6.88;2.90;;;13.20;99.90;;;;;;5032173;28;20048;-68
2023/08/08 01:49:26;;;;;;;4.65;2.45;;;13.20;99.90;;;;;;5047831;28;20404;-68
2023/08/08 01:51:52;;;;;;;4.97;2.63;;;13.20;99.90;;;;;;5039258;28;20061;-68
2023/08/08 01:54:18;;;;;;;5.15;2.45;;;13.20;99.90;;;;;;5029216;28;20427;-67
2023/08/08 01:56:44;;;;;;;6.75;3.20;;;13.20;99.90;;;;;;5031850;28;20049;-69
2023/08/08 01:59:09;;;;;;;4.50;3.22;;;13.20;99.90;;;;;;5031676;28;20045;-68
2023/08/08 02:01:35;;;;;;;4.25;2.80;;;13.20;99.90;;;;;;5036031;28;20044;-68
2023/08/08 02:04:01;;;;;;;6.95;2.72;;;13.20;99.90;;;;;;5039054;28;20064;-67
2023/08/08 02:06:26;;;;;;;6.40;2.70;;;13.20;99.90;;;;;;5032653;28;20068;-69
2023/08/08 02:08:52;;;;;;;6.47;3.50;;;13.20;99.90;;;;;;5029235;28;20087;-69
2023/08/08 02:11:17;;;;;;;7.25;3.08;;;13.30;99.90;;;;;;5028675;28;20383;-68
2023/08/08 02:13:43;;;;;;;6.75;3.10;;;13.30;99.90;;;;;;5028772;28;20453;-67
2023/08/08 02:16:09;;;;;;;4.45;2.78;;;13.30;99.90;;;;;;5050070;28;20442;-68
2023/08/08 02:18:36;;;;;;;5.30;2.80;;;13.30;99.90;;;;;;5052041;28;20781;-68
2023/08/08 02:21:01;;;;;;;7.45;3.00;;;13.30;99.90;;;;;;5047209;28;20095;-70
2023/08/08 02:23:27;;;;;;;6.75;3.55;;;13.30;99.90;;;;;;5030114;28;20061;-68
2023/08/08 02:25:53;;;;;;;7.55;3.58;;;13.30;99.90;;;;;;5052310;28;20426;-68
2023/08/08 02:28:18;;;;;;;7.60;3.03;;;13.30;99.90;;;;;;5038302;28;20043;-68
2023/08/08 02:30:44;;;;;;;8.40;3.85;;;13.40;99.90;;;;;;5033893;28;20045;-67
2023/08/08 02:33:10;;;;;;;9.40;2.95;;;13.40;99.90;;;;;;5030475;28;20099;-68
2023/08/08 02:35:37;;;;;;;10.77;3.85;;;13.40;99.90;;;;;;5033454;28;20040;-69
2023/08/08 02:38:02;;;;;;;7.03;3.33;;;13.40;99.90;;;;;;5039326;28;20065;-68
2023/08/08 02:40:28;;;;;;;5.30;2.88;;;13.40;99.90;;;;;;5051875;28;20045;-68
2023/08/08 02:42:53;;;;;;;8.32;2.92;;;13.40;99.90;;;;;;5042655;28;20037;-68
2023/08/08 02:45:19;;;;;;;9.10;3.60;;;13.40;99.90;;;;;;5035531;28;20068;-68
2023/08/08 02:47:44;;;;;;;4.57;3.08;;;13.40;99.90;;;;;;5038012;28;20029;-67
2023/08/08 02:50:10;;;;;;;6.70;3.38;;;13.40;99.90;;;;;;5042782;28;20039;-67
2023/08/08 02:52:36;;;;;;;9.43;3.25;;;13.40;99.90;;;;;;5041763;28;20131;-69
2023/08/08 02:55:02;;;;;;;6.82;3.42;;;13.40;99.90;;;;;;5030770;28;20037;-68
2023/08/08 02:57:28;;;;;;;5.75;3.15;;;13.40;99.90;;;;;;5045754;28;20060;-68
2023/08/08 02:59:53;;;;;;;4.72;3.40;;;13.40;99.90;;;;;;5045146;28;20045;-68
2023/08/08 03:02:19;;;;;;;6.00;3.35;;;13.30;99.90;;;;;;5031774;28;20044;-68
2023/08/08 03:04:44;;;;;;;9.93;3.97;;;13.40;99.90;;;;;;5031559;28;20037;-68
2023/08/08 03:07:10;;;;;;;7.50;3.10;;;13.40;99.90;;;;;;5018324;28;20044;-68
2023/08/08 03:09:35;;;;;;;8.77;3.53;;;13.40;99.90;;;;;;5040889;28;20478;-69
2023/08/08 03:12:01;;;;;;;5.20;3.47;;;13.30;99.90;;;;;;5035135;28;20045;-69
2023/08/08 03:14:27;;;;;;;6.25;3.00;;;13.30;99.90;;;;;;5028190;28;20142;-67
2023/08/08 03:16:52;;;;;;;7.63;3.30;;;13.30;99.90;;;;;;5032367;28;20590;-69
2023/08/08 03:19:18;;;;;;;7.90;3.20;;;13.40;99.90;;;;;;5051323;28;20064;-69
2023/08/08 03:21:43;;;;;;;6.97;3.80;;;13.40;99.90;;;;;;5040537;28;20137;-68
2023/08/08 03:24:09;;;;;;;6.53;3.33;;;13.40;99.90;;;;;;5036780;28;20469;-69
2023/08/08 03:26:35;;;;;;;6.85;2.90;;;13.40;99.90;;;;;;5029878;28;20037;-68
2023/08/08 03:29:00;;;;;;;6.15;3.10;;;13.40;99.90;;;;;;5036664;28;20042;-67
2023/08/08 03:31:26;;;;;;;7.47;2.95;;;13.40;99.90;;;;;;5039460;28;20440;-68
2023/08/08 03:33:52;;;;;;;4.90;2.70;;;13.40;99.90;;;;;;5029565;28;20048;-68
2023/08/08 03:36:18;;;;;;;6.22;3.05;;;13.40;99.90;;;;;;5028629;28;20040;-67
2023/08/08 03:38:45;;;;;;;4.70;3.10;;;13.50;99.90;;;;;;5038083;28;20130;-68
2023/08/08 03:41:11;;;;;;;7.85;3.05;;;13.50;99.90;;;;;;5030609;28;20034;-68
2023/08/08 03:43:38;;;;;;;7.82;3.20;;;13.50;99.90;;;;;;5026646;28;20059;-68
2023/08/08 03:46:04;;;;;;;8.43;3.53;;;13.50;99.90;;;;;;5044957;28;20426;-68
2023/08/08 03:48:29;;;;;;;5.93;3.05;;;13.50;99.90;;;;;;5045241;28;20037;-68
2023/08/08 03:50:55;;;;;;;5.53;3.25;;;13.40;99.90;;;;;;5034209;28;20099;-69
2023/08/08 03:53:20;;;;;;;5.25;3.13;;;13.40;99.90;;;;;;5052925;28;20076;-69
2023/08/08 03:55:46;;;;;;;7.70;3.60;;;13.30;99.90;;;;;;5035642;28;20042;-69
2023/08/08 03:58:11;;;;;;;9.18;3.58;;;13.30;99.90;;;;;;5024510;28;20041;-68
2023/08/08 04:00:39;;;;;;;10.07;3.88;;;13.20;99.90;;;;;;5016419;28;20049;-68
2023/08/08 04:03:05;;;;;;;6.60;3.40;;;13.20;99.90;;;;;;5036056;28;20130;-69
2023/08/08 04:05:30;;;;;;;8.52;3.47;;;13.10;99.90;;;;;;5052436;28;20039;-69
2023/08/08 04:07:56;;;;;;;6.47;3.20;;;13.10;99.90;;;;;;5029421;28;20037;-69
2023/08/08 04:10:21;;;;;;;6.40;3.20;;;13.10;99.90;;;;;;5027275;28;20049;-69
2023/08/08 04:12:47;;;;;;;3.97;3.03;;;13.10;99.90;;;;;;5044765;28;20040;-68
2023/08/08 04:15:12;;;;;;;5.53;3.42;;;13.00;99.90;;;;;;5038975;28;20049;-69
2023/08/08 04:17:38;;;;;;;6.75;3.50;;;13.00;99.90;;;;;;5047927;28;20138;-67
2023/08/08 04:20:06;;;;;;;9.30;3.60;;;13.10;99.90;;;;;;5032452;28;20068;-68
2023/08/08 04:22:31;;;;;;;18.15;4.40;;;13.10;99.90;;;;;;5045206;28;20272;-67
2023/08/08 04:24:57;;;;;;;11.40;4.55;;;13.00;99.90;;;;;;5034384;28;20562;-68
2023/08/08 04:27:22;;;;;;;9.13;4.15;;;12.90;99.90;;;;;;5063181;28;20037;-69
2023/08/08 04:29:48;;;;;;;6.38;4.13;;;12.90;99.90;;;;;;5033138;28;20111;-70
2023/08/08 04:32:14;;;;;;;10.70;3.95;;;12.90;99.90;;;;;;5038901;28;20039;-71
2023/08/08 04:34:39;;;;;;;8.18;4.13;;;12.80;99.90;;;;;;5045723;28;20388;-71
2023/08/08 04:37:05;;;;;;;7.78;3.78;;;12.70;99.90;;;;;;5033011;28;20142;-71
2023/08/08 04:39:30;;;;;;;8.32;3.35;;;12.70;99.90;;;;;;5038844;28;20073;-71
2023/08/08 04:41:56;;;;;;;7.90;3.40;;;12.70;99.90;;;;;;5049299;28;20110;-71
2023/08/08 04:44:21;;;;;;;9.68;3.60;;;12.70;99.90;;;;;;5033563;28;20029;-70
2023/08/08 04:46:47;;;;;;;6.88;3.10;;;12.70;99.90;;;;;;5036329;28;20064;-71
2023/08/08 04:49:13;;;;;;;7.65;2.95;;;12.60;99.90;;;;;;5039401;28;20030;-70
2023/08/08 04:51:38;;;;;;;4.93;2.40;;;12.70;99.90;;;;;;5041025;28;20143;-70
2023/08/08 04:54:04;;;;;;;7.15;2.75;;;12.70;99.90;;;;;;5019074;28;20037;-69
2023/08/08 04:56:29;;;;;;;9.20;2.90;;;12.70;99.90;;;;;;5038778;28;20129;-69
2023/08/08 04:58:55;;;;;;;6.65;2.42;;;12.70;99.90;;;;;;5040511;28;20140;-69
2023/08/08 05:01:21;;;;;;;5.55;2.15;;;12.60;99.90;;;;;;5030398;28;20052;-69
2023/08/08 05:03:48;;;;;;;7.30;2.20;;;12.60;99.90;;;;;;5045743;28;20098;-70
2023/08/08 05:06:13;;;;;;;8.15;2.65;;;12.60;99.90;;;;;;5046126;28;20049;-70
2023/08/08 05:08:39;;;;;;;5.20;1.92;;;12.50;99.90;;;;;;5034366;28;20036;-71
2023/08/08 05:11:04;;;;;;;7.07;2.20;;;12.50;99.90;;;;;;5040587;28;20041;-71
2023/08/08 05:13:30;;;;;;;5.93;2.33;;;12.50;99.90;;;;;;5036378;28;20429;-71
2023/08/08 05:15:56;;;;;;;6.90;2.20;;;12.40;99.90;;;;;;5037931;28;20520;-70
2023/08/08 05:18:21;;;;;;;8.15;2.08;;;12.50;99.90;;;;;;5033539;28;20389;-70
2023/08/08 05:20:47;;;;;;;7.88;2.00;;;12.40;99.90;;;;;;5030580;28;20080;-70
2023/08/08 05:23:12;;;;;;;10.90;2.00;;;12.40;99.90;;;;;;5042148;28;20029;-70
2023/08/08 05:25:38;;;;;;;5.25;2.70;;;12.40;99.90;;;;;;5054299;28;20040;-71
2023/08/08 05:28:04;;;;;;;7.72;2.20;;;12.50;99.90;;;;;;5060383;28;20080;-71
2023/08/08 05:30:29;;;;;;;11.02;2.25;;;12.60;99.90;;;;;;5038719;28;20342;-72
2023/08/08 05:32:55;;;;;;;6.93;1.98;;;12.60;99.90;;;;;;5037597;28;20132;-71
2023/08/08 05:35:20;;;;;;;6.45;2.05;;;12.70;99.90;;;;;;5040862;28;20040;-70
2023/08/08 05:37:46;;;;;;;7.85;2.13;;;12.80;99.90;;;;;;5044673;28;20491;-72
2023/08/08 05:40:11;;;;;;;6.82;1.70;;;12.80;99.90;;;;;;5045781;28;20052;-71
2023/08/08 05:42:38;;;;;;;6.07;1.63;;;12.90;99.90;;;;;;5022522;28;20056;-72
2023/08/08 05:45:04;;;;;;;7.30;1.90;;;13.00;99.90;;;;;;5055296;28;20033;-71
2023/08/08 05:47:30;;;;;;;5.20;1.90;;;13.10;99.90;;;;;;5054977;28;20037;-72
2023/08/08 05:49:55;;;;;;;5.85;1.33;;;13.20;99.90;;;;;;5040230;28;20037;-72
2023/08/08 05:52:21;;;;;;;6.13;1.70;;;13.40;99.90;;;;;;5038272;28;20050;-72
2023/08/08 05:54:47;;;;;;;7.65;2.10;;;13.50;99.90;;;;;;5053455;28;20033;-73
2023/08/08 05:57:13;;;;;;;4.50;1.80;;;13.50;99.90;;;;;;5043963;28;20037;-71
2023/08/08 05:59:38;;;;;;;7.60;1.88;;;13.60;99.90;;;;;;5034449;28;20380;-74
2023/08/08 06:02:04;;;;;;;3.97;1.38;;;13.70;99.90;;;;;;5044936;28;20053;-73
2023/08/08 06:04:30;;;;;;;8.85;1.48;;;13.80;99.90;;;;;;5045748;28;20520;-73
2023/08/08 06:06:55;;;;;;;6.28;1.65;;;13.80;99.90;;;;;;5035476;28;20041;-74
2023/08/08 06:09:21;;;;;;;5.93;1.33;;;13.80;99.90;;;;;;5011482;28;20052;-73
2023/08/08 06:11:48;;;;;;;5.13;1.25;;;13.90;99.90;;;;;;5048248;28;20049;-73
2023/08/08 06:14:13;;;;;;;4.97;1.27;;;13.90;99.90;;;;;;5029112;28;20055;-74
2023/08/08 06:16:39;;;;;;;3.42;1.30;;;14.00;99.90;;;;;;5032577;28;20041;-74
2023/08/08 06:19:05;;;;;;;1.63;1.10;;;14.10;99.90;;;;;;5042846;28;20040;-74
2023/08/08 06:21:31;;;;;;;3.22;1.27;;;14.20;99.90;;;;;;5038232;28;20048;-75
2023/08/08 06:23:57;;;;;;;8.20;1.23;;;14.20;99.90;;;;;;5036643;28;20032;-75
2023/08/08 06:26:23;;;;;;;5.70;1.38;;;14.30;99.90;;;;;;5046682;28;20068;-73
2023/08/08 06:28:48;;;;;;;5.70;1.40;;;14.30;99.90;;;;;;5044191;28;20476;-73
2023/08/08 06:31:14;;;;;;;7.50;1.20;;;14.40;99.90;;;;;;5044515;28;20059;-73
2023/08/08 06:33:40;;;;;;;6.25;1.25;;;14.60;99.90;;;;;;5045420;28;20076;-72
2023/08/08 06:36:06;;;;;;;4.63;1.10;;;14.80;99.90;;;;;;5050811;28;20059;-72
2023/08/08 06:38:33;;;;;;;4.18;1.10;;;15.00;99.90;;;;;;5034162;28;20354;-71
2023/08/08 06:41:00;;;;;;;2.20;0.90;;;15.10;99.90;;;;;;5043802;28;20045;-72
2023/08/08 06:43:26;;;;;;;8.25;1.30;;;15.20;99.90;;;;;;5060448;28;20140;-70
2023/08/08 06:45:51;;;;;;;3.45;1.00;;;15.20;99.90;;;;;;5049780;28;20144;-73
2023/08/08 06:48:17;;;;;;;5.07;1.25;;;15.20;99.90;;;;;;5045212;28;20054;-73
2023/08/08 06:50:43;;;;;;;8.65;1.73;;;15.30;99.90;;;;;;5024966;28;20095;-72
2023/08/08 06:53:08;;;;;;;4.45;1.02;;;15.50;99.90;;;;;;5044365;28;20045;-70
2023/08/08 06:55:34;;;;;;;8.10;1.10;;;15.60;99.90;;;;;;5037869;28;20115;-76
2023/08/08 06:57:59;;;;;;;5.13;1.17;;;15.70;99.90;;;;;;5052391;28;20106;-72
2023/08/08 07:00:27;;;;;;;3.03;0.98;;;15.90;99.90;;;;;;5040859;28;20053;-73
2023/08/08 07:02:52;;;;;;;3.92;1.10;;;15.80;99.90;;;;;;5033043;28;20046;-71
2023/08/08 07:05:18;;;;;;;6.40;1.10;;;15.90;99.90;;;;;;5033255;28;20037;-72
2023/08/08 07:07:44;;;;;;;3.75;1.13;;;16.10;99.90;;;;;;5047598;28;20484;-72
2023/08/08 07:10:11;;;;;;;7.18;1.00;;;16.40;99.90;;;;;;5053738;28;20047;-70
2023/08/08 07:12:37;;;;;;;4.57;0.77;;;16.50;99.90;;;;;;5038380;28;20036;-73
2023/08/08 07:15:04;;;;;;;2.58;0.90;;;16.70;99.90;;;;;;5057611;28;20036;-72
2023/08/08 07:17:29;;;;;;;3.50;0.95;;;16.70;99.90;;;;;;5049149;28;20131;-75
2023/08/08 07:19:56;;;;;;;5.05;0.90;;;16.80;99.90;;;;;;5047845;28;20128;-73
2023/08/08 07:22:22;;;;;;;3.40;1.13;;;16.90;99.90;;;;;;5022131;28;20430;-73
2023/08/08 07:24:48;;;;;;;4.88;1.00;;;17.00;99.90;;;;;;5030975;28;20045;-75
2023/08/08 07:27:13;;;;;;;4.47;1.33;;;17.00;99.90;;;;;;5055093;28;20036;-73
2023/08/08 07:29:39;;;;;;;3.55;0.60;;;17.10;99.90;;;;;;5053995;28;20035;-74
2023/08/08 07:32:05;;;;;;;6.30;1.10;;;17.20;99.90;;;;;;5051278;28;20097;-74
2023/08/08 07:34:32;;;;;;;4.60;0.90;;;17.40;99.90;;;;;;5046995;28;20950;-74
2023/08/08 07:36:57;;;;;;;4.65;0.95;;;17.30;99.90;;;;;;5035605;28;20036;-75
2023/08/08 07:39:23;;;;;;;5.47;0.90;;;17.40;99.90;;;;;;5055281;28;20049;-76
2023/08/08 07:41:49;;;;;;;3.50;0.70;;;17.40;99.90;;;;;;5044449;28;20049;-75
2023/08/08 07:44:15;;;;;;;4.35;0.88;;;17.40;99.60;;;;;;5038843;28;20046;-69
2023/08/08 07:46:41;;;;;;;2.85;0.60;;;17.60;99.50;;;;;;5034545;28;20086;-73
2023/08/08 07:49:06;;;;;;;3.65;1.00;;;17.70;97.90;;;;;;5055515;28;20494;-74
2023/08/08 07:51:32;;;;;;;5.30;1.30;;;17.80;95.20;;;;;;5030553;28;20063;-73
2023/08/08 07:53:59;;;;;;;2.35;0.98;;;17.70;94.20;;;;;;5051360;28;20056;-74
2023/08/08 07:56:24;;;;;;;4.05;0.90;;;17.70;90.60;;;;;;5057593;28;20045;-73
2023/08/08 07:58:50;;;;;;;4.50;0.90;;;17.90;93.50;;;;;;5050031;28;20136;-73
2023/08/08 08:01:16;;;;;;;2.97;0.88;;;18.20;93.00;;;;;;5035419;28;20043;-72
2023/08/08 08:03:42;;;;;;;2.33;0.75;;;18.40;92.60;;;;;;5040944;28;20036;-72
2023/08/08 08:06:07;;;;;;;3.55;0.70;;;18.40;90.20;;;;;;5052396;28;20443;-74
2023/08/08 08:08:33;;;;;;;2.90;0.60;;;18.60;88.50;;;;;;5052676;28;20403;-73
2023/08/08 08:10:59;;;;;;;2.50;0.85;;;18.80;88.80;;;;;;5048671;28;20051;-71
2023/08/08 08:13:24;;;;;;;3.63;0.70;;;18.60;87.30;;;;;;5050115;28;20498;-73
2023/08/08 08:15:50;;;;;;;3.88;0.80;;;18.70;85.90;;;;;;5052945;28;20037;-72
2023/08/08 08:18:17;;;;;;;3.55;0.75;;;18.90;86.40;;;;;;5047456;28;20510;-69
2023/08/08 08:20:46;;;;;;;2.92;0.95;;;19.00;85.40;;;;;;5034361;28;20472;-72
2023/08/08 08:23:12;;;;;;;1.70;0.65;;;18.90;84.50;;;;;;5051524;28;20063;-70
2023/08/08 08:25:38;;;;;;;4.22;0.90;;;18.80;84.10;;;;;;5050272;28;20045;-72
2023/08/08 08:28:03;;;;;;;1.83;0.90;;;18.70;83.70;;;;;;5052710;28;20120;-72
2023/08/08 08:30:29;;;;;;;2.45;0.73;;;18.90;83.60;;;;;;5052450;28;20037;-71
2023/08/08 08:32:56;;;;;;;5.63;0.90;;;18.80;82.50;;;;;;5048477;28;20033;-72
2023/08/08 08:35:22;;;;;;;2.97;0.60;;;19.10;78.90;;;;;;5014760;28;20076;-71
2023/08/08 08:37:48;;;;;;;2.95;0.70;;;18.80;79.60;;;;;;5031727;28;20160;-72
2023/08/08 08:40:13;;;;;;;2.42;0.70;;;18.90;79.20;;;;;;5035537;28;20038;-72
2023/08/08 08:42:40;;;;;;;4.55;0.80;;;19.30;77.90;;;;;;5041209;28;20804;-72
2023/08/08 08:45:08;;;;;;;3.75;1.02;;;19.30;78.20;;;;;;5068523;28;20036;-73
2023/08/08 08:47:36;;;;;;;4.80;1.00;;;19.20;76.50;;;;;;5034064;28;20429;-73
2023/08/08 08:50:03;;;;;;;3.13;0.70;;;19.40;77.60;;;;;;5044539;28;20116;-70
2023/08/08 08:52:30;;;;;;;5.22;1.30;;;19.40;77.20;;;;;;5045153;28;20057;-72
2023/08/08 08:54:56;;;;;;;2.33;0.70;;;19.40;76.70;;;;;;5049181;28;20052;-73
2023/08/08 08:57:25;;;;;;;3.17;0.90;;;19.50;78.10;;;;;;5049231;28;20068;-72
2023/08/08 08:59:52;;;;;;;2.95;0.60;;;19.40;75.30;;;;;;5050805;28;20060;-73
2023/08/08 09:02:18;;;;;;;5.82;0.90;;;19.20;77.30;;;;;;5051194;28;20056;-73
2023/08/08 09:04:45;;;;;;;5.97;1.10;;;18.90;77.40;;;;;;5051509;28;20052;-72
2023/08/08 09:07:11;;;;;;;3.33;0.57;;;18.10;81.70;;;;;;5050363;28;20053;-72
2023/08/08 09:09:37;;;;;;;3.97;0.70;;;17.50;99.90;;;;;;5048744;28;20033;-71
2023/08/08 09:12:05;;;;;;;2.25;1.23;;;16.10;97.80;;;;;;5048985;28;20330;-71
2023/08/08 09:14:31;;;;;;;4.18;0.80;;;15.30;99.90;;;;;;5043885;28;20037;-71
2023/08/08 09:16:57;;;;;;;3.83;1.23;;;15.10;99.90;;;;;;5054215;28;20124;-71
2023/08/08 09:19:23;;;;;;;5.22;1.15;;;15.10;99.90;;;;;;5029014;28;20048;-73
2023/08/08 09:21:50;;;;;;;2.22;0.80;;;15.00;99.90;;;;;;5034532;28;20066;-73
2023/08/08 09:24:15;;;;;;;4.22;1.20;;;15.20;99.90;;;;;;5068967;28;20582;-73
2023/08/08 09:26:42;;;;;;;2.60;0.88;;;15.50;99.90;;;;;;5069060;28;20260;-73
2023/08/08 09:29:09;;;;;;;4.95;1.48;;;15.50;99.90;;;;;;5064314;28;20111;-74
2023/08/08 09:31:35;;;;;;;2.10;0.95;;;15.40;99.90;;;;;;5032298;28;20065;-72
2023/08/08 09:34:04;;;;;;;2.47;0.90;;;15.30;99.90;;;;;;5044450;28;20051;-73
2023/08/08 09:36:30;;;;;;;3.55;0.82;;;15.20;99.90;;;;;;5052458;28;20161;-72
2023/08/08 09:38:56;;;;;;;4.53;1.40;;;15.10;99.90;;;;;;5033587;28;20033;-74
2023/08/08 09:41:22;;;;;;;4.15;1.00;;;15.00;99.90;;;;;;5045003;28;20190;-72
2023/08/08 09:43:49;;;;;;;3.40;1.05;;;15.00;99.90;;;;;;5037950;28;20041;-70
2023/08/08 09:46:15;;;;;;;6.05;1.15;;;15.10;99.90;;;;;;5048213;28;20432;-73
2023/08/08 09:48:42;;;;;;;3.80;0.93;;;15.10;99.90;;;;;;5044268;28;20037;-73
2023/08/08 09:51:08;;;;;;;5.05;0.95;;;15.40;99.90;;;;;;5039580;28;20152;-73
2023/08/08 09:53:35;;;;;;;1.95;0.80;;;15.70;99.90;;;;;;5064170;28;20974;-76
2023/08/08 09:56:03;;;;;;;6.03;1.60;;;15.80;99.90;;;;;;5047253;28;20041;-75
2023/08/08 09:58:29;;;;;;;5.20;1.30;;;16.20;99.90;;;;;;5052585;28;20036;-73
2023/08/08 10:00:55;;;;;;;3.10;0.90;;;16.50;99.90;;;;;;5041766;28;20113;-74
2023/08/08 10:03:22;;;;;;;2.30;1.05;;;16.90;99.90;;;;;;5032108;28;20086;-75
2023/08/08 10:05:48;;;;;;;2.88;0.90;;;17.50;99.90;;;;;;5070079;28;20072;-75
2023/08/08 10:08:17;;;;;;;2.80;0.80;;;17.80;99.90;;;;;;5044200;28;20037;-72
2023/08/08 10:10:45;;;;;;;2.45;1.00;;;17.80;99.90;;;;;;5043600;28;20152;-73
2023/08/08 10:13:22;;;;;;;2.65;0.68;;;18.10;99.90;;;;;;5040576;28;20101;-73
2023/08/08 10:15:49;;;;;;;6.15;1.20;;;18.30;97.50;;;;;;5069741;28;20037;-74
2023/08/08 10:18:15;;;;;;;2.42;0.77;;;18.80;99.00;;;;;;5028802;28;20118;-75
2023/08/08 10:20:47;;;;;;;5.03;1.10;;;19.20;96.80;;;;;;5041721;28;20040;-76
2023/08/08 10:23:18;;;;;;;4.88;1.15;;;19.20;94.20;;;;;;5051867;28;20079;-74
2023/08/08 10:25:49;;;;;;;2.30;0.95;;;19.40;92.70;;;;;;5067580;28;20094;-74
2023/08/08 10:28:18;;;;;;;4.80;0.80;;;20.10;92.10;;;;;;5069073;28;20072;-74
2023/08/08 10:30:55;;;;;;;2.85;0.60;;;20.20;93.40;;;;;;5031118;28;20063;-71
2023/08/08 10:33:39;;;;;;;3.75;1.17;;;19.60;92.70;;;;;;5054666;28;20051;-75
2023/08/08 10:36:09;;;;;;;4.45;1.05;;;18.70;91.30;;;;;;5061669;28;20091;-75
2023/08/08 10:38:50;;;;;;;;;;;18.40;93.50;;;;;;5048949;28;20622;-75
2023/08/08 10:41:21;;;;;;;3.45;0.93;;;18.90;86.30;;;;;;5046544;28;19921;-73
2023/08/08 10:43:56;;;;;;;3.90;1.23;;;19.10;90.00;;;;;;5030415;28;20053;-73
2023/08/08 10:46:33;;;;;;;3.45;0.80;;;19.50;86.30;;;;;;5068724;28;20127;-75
2023/08/08 10:49:04;;;;;;;2.25;0.65;;;19.70;79.20;;;;;;5068794;28;20048;-76
2023/08/08 10:51:37;;;;;;;3.70;1.10;;;19.80;78.90;;;;;;5054234;28;20052;-75
2023/08/08 10:54:11;;;;;;;1.73;0.80;;;20.20;75.00;;;;;;5019234;28;20052;-74
2023/08/08 10:56:37;;;;;;;6.40;1.35;;;20.20;79.90;;;;;;5037377;28;20409;-72
2023/08/08 10:59:16;;;;;;;5.03;0.80;;;20.10;78.20;;;;;;5044917;28;20033;-73
2023/08/08 11:01:44;;;;;;;4.88;1.15;;;20.20;75.30;;;;;;5044251;28;20069;-71
2023/08/08 11:04:11;;;;;;;3.47;0.77;;;20.10;76.90;;;;;;5024468;28;20125;-73
2023/08/08 11:06:37;;;;;;;2.88;0.85;;;20.10;75.80;;;;;;5032125;28;20029;-73
2023/08/08 11:09:05;;;;;;;2.78;1.23;;;20.10;72.70;;;;;;5043506;28;20037;-72
2023/08/08 11:11:37;;;;;;;2.65;0.80;;;19.80;68.20;;;;;;5054468;28;20036;-77
2023/08/08 11:14:17;;;;;;;1.83;0.77;;;19.90;65.20;;;;;;5033910;28;20069;-72
2023/08/08 11:16:45;;;;;;;1.85;0.82;;;20.40;67.40;;;;;;5054367;28;20078;-74
2023/08/08 11:19:15;;;;;;;5.75;0.90;;;20.20;68.10;;;;;;5037211;28;20034;-73
2023/08/08 11:21:43;;;;;;;1.90;0.75;;;20.40;69.60;;;;;;5028190;28;20392;-73
2023/08/08 11:24:10;;;;;;;2.42;1.08;;;20.10;69.20;;;;;;5039773;28;20035;-70
2023/08/08 11:26:37;;;;;;;5.22;1.30;;;20.30;71.10;;;;;;5039518;28;20092;-70
2023/08/08 11:29:07;;;;;;;7.28;1.10;;;20.20;70.70;;;;;;5035316;28;20519;-72
2023/08/08 11:31:37;;;;;;;3.35;0.80;;;20.00;69.60;;;;;;5030086;28;20052;-72
2023/08/08 11:34:04;;;;;;;2.72;0.90;;;20.00;68.30;;;;;;5012806;28;20188;-71
2023/08/08 11:36:32;;;;;;;3.83;0.70;;;20.00;69.30;;;;;;5032736;28;20454;-71
2023/08/08 11:39:01;;;;;;;5.03;0.95;;;20.00;69.00;;;;;;5050364;28;20048;-73
2023/08/08 11:41:26;;;;;;;4.50;0.98;;;19.80;65.60;;;;;;5048190;28;20362;-70
2023/08/08 11:43:53;;;;;;;6.78;1.50;;;19.80;69.70;;;;;;5056966;28;20040;-72
2023/08/08 11:46:22;;;;;;;4.05;0.50;;;19.80;68.90;;;;;;5043699;28;20068;-70
2023/08/08 11:48:48;;;;;;;4.03;0.85;;;19.90;69.90;;;;;;5040230;28;20042;-69
2023/08/08 11:51:15;;;;;;;3.28;0.93;;;20.30;70.00;;;;;;5042014;28;20057;-73
2023/08/08 11:53:53;;;;;;;4.32;1.02;;;20.70;70.80;;;;;;5034456;28;20041;-73
2023/08/08 11:56:20;;;;;;;5.00;1.00;;;20.30;59.60;;;;;;5013696;28;20091;-70
2023/08/08 11:58:49;;;;;;;5.05;0.70;;;20.50;65.10;;;;;;5038313;28;20040;-71
2023/08/08 12:01:15;;;;;;;2.72;0.77;;;20.50;64.30;;;;;;5019713;28;20060;-71
2023/08/08 12:03:41;;;;;;;3.05;0.60;;;20.30;63.00;;;;;;5022407;28;20045;-73
2023/08/08 12:06:17;;;;;;;4.57;0.75;;;20.30;62.70;;;;;;5017843;28;20038;-71
2023/08/08 12:08:43;;;;;;;2.75;0.65;;;20.30;62.10;;;;;;5027526;28;20158;-71
2023/08/08 12:11:10;;;;;;;3.17;0.80;;;20.70;62.70;;;;;;5053494;28;20041;-73
2023/08/08 12:13:39;;;;;;;4.00;1.00;;;20.70;64.30;;;;;;5043830;28;20748;-73
2023/08/08 12:16:06;;;;;;;4.38;0.82;;;21.00;63.90;;;;;;5056127;28;20040;-71
2023/08/08 12:18:32;;;;;;;3.58;0.70;;;21.30;63.60;;;;;;5031989;28;20111;-71
2023/08/08 12:20:58;;;;;;;4.70;0.93;;;21.10;63.00;;;;;;5028624;28;20369;-69
2023/08/08 12:23:26;;;;;;;2.40;0.85;;;20.90;63.60;;;;;;5034356;28;20037;-72
2023/08/08 12:25:52;;;;;;;3.80;0.60;;;21.00;62.80;;;;;;5042352;28;20052;-71
2023/08/08 12:28:19;;;;;;;3.03;0.80;;;21.00;63.70;;;;;;5059099;28;20041;-72
2023/08/08 12:30:44;;;;;;;2.70;0.70;;;21.40;63.50;;;;;;5038038;28;20134;-72
2023/08/08 12:33:10;;;;;;;5.63;0.88;;;21.40;61.90;;;;;;5026372;28;20076;-68
2023/08/08 12:35:35;;;;;;;4.75;0.82;;;21.10;63.40;;;;;;5036051;28;20030;-73
2023/08/08 12:38:02;;;;;;;3.75;1.02;;;20.50;63.80;;;;;;5038718;28;20099;-69
2023/08/08 12:40:28;;;;;;;4.20;0.73;;;20.50;63.60;;;;;;5034904;28;20620;-72
2023/08/08 12:42:54;;;;;;;3.33;0.80;;;20.40;63.60;;;;;;5047361;28;20063;-73
2023/08/08 12:45:19;;;;;;;2.08;0.50;;;20.50;62.30;;;;;;5040362;28;20034;-72